»·PEaware :: GSA554 LFMN-LIRF

GSA554 :: LFMN-LIRF

FLIGHT INFORMATION

Flight Status: Arrived
Operator:
Global Sim Alliance
More flights by this operator :: More flights under this callsign
Pilot: Shawn G. (7208)
Aircraft: BOEING 767-300
(B763)
More flights by this aircraft type
Origin: LFMN Nice/Cote d'Azur
France
Destination: LIRF Fiumicino
Italy
More flights between these airports :: More routes between these airports
Route: SODRI6A SODRI UM728 BTA UL146 MOULE L146 ELB M729 GILIO GILI4B
File this flight plan on PilotEdge
Remarks:
Altitude:
(Current/Filed)
37,000ft
Speed:
(Current/Filed)
450kts
Departed: 31-Mar-17 08:44 PM
Arrived: 31-Mar-17 09:30 PM
Distance/Time
Traveled:
249nm/0:46
Distance/Time
To Go:
Arrived

Flight Plot

Page will automatically refresh every two minutes.

Flight plan parsing failed; only flown route is shown


Map Options




Map Legend


Flown Route
Filed Route
Departure Airport
Arrival Airport
Navaid (VOR, NDB)
Fix

Horizontal Profiles

Position Reports

Time Latitude Longitude Heading Altitude Ground
Speed
31-Mar-17 20:31 43.663768 7.210321 349 23ft 0kts
31-Mar-17 20:32 43.663767 7.210321 349 23ft 0kts
31-Mar-17 20:33 43.663767 7.210321 349 23ft 0kts
31-Mar-17 20:34 43.663767 7.210321 349 23ft 0kts
31-Mar-17 20:35 43.663767 7.210321 349 23ft 0kts
31-Mar-17 20:36 43.663767 7.210321 349 23ft 0kts
31-Mar-17 20:37 43.663767 7.210321 349 23ft 0kts
31-Mar-17 20:38 43.663521 7.210398 327 23ft 1kts
31-Mar-17 20:39 43.663202 7.210879 277 23ft 0kts
31-Mar-17 20:40 43.663202 7.210879 277 23ft 0kts
31-Mar-17 20:41 43.663205 7.210843 277 23ft 1kts
31-Mar-17 20:42 43.660008 7.210582 169 23ft 25kts
31-Mar-17 20:43 43.654168 7.204012 223 23ft 23kts
31-Mar-17 20:44 43.652120 7.204029 107 23ft 15kts
31-Mar-17 20:45 43.666103 7.223928 44 358ft 168kts
31-Mar-17 20:46 43.650125 7.278053 139 2600ft 224kts
31-Mar-17 20:47 43.605407 7.335787 129 6680ft 223kts
31-Mar-17 20:48 43.545403 7.372758 166 9895ft 259kts
31-Mar-17 20:49 43.466058 7.409312 161 11810ft 354kts
31-Mar-17 20:50 43.370318 7.457746 161 15666ft 380kts
31-Mar-17 20:51 43.268788 7.508871 160 19249ft 400kts
31-Mar-17 20:52 43.163827 7.566135 149 22398ft 420kts
31-Mar-17 20:53 43.091287 7.691034 112 25155ft 448kts
31-Mar-17 20:54 43.071323 7.862438 101 27603ft 467kts
31-Mar-17 20:55 43.051906 8.038675 102 30211ft 471kts
31-Mar-17 20:56 43.031866 8.212048 102 33232ft 457kts
31-Mar-17 20:57 43.007414 8.379285 114 35432ft 446kts
31-Mar-17 20:58 42.951304 8.529079 119 36995ft 445kts
31-Mar-17 20:59 42.894982 8.672716 120 37096ft 442kts
31-Mar-17 21:00 42.836600 8.819783 120 37105ft 444kts
31-Mar-17 21:01 42.777970 8.966975 120 37104ft 443kts
31-Mar-17 21:02 42.719170 9.114129 120 37103ft 443kts
31-Mar-17 21:03 42.660061 9.261120 120 37102ft 443kts
31-Mar-17 21:04 42.601577 9.407861 115 37096ft 444kts
31-Mar-17 21:05 42.591414 9.573169 80 37092ft 448kts
31-Mar-17 21:06 42.619419 9.738232 80 35158ft 464kts
31-Mar-17 21:07 42.648773 9.909837 80 32364ft 471kts
31-Mar-17 21:08 42.677913 10.081131 80 30011ft 466kts
31-Mar-17 21:09 42.706752 10.252371 80 27980ft 462kts
31-Mar-17 21:10 42.695625 10.418866 115 25633ft 442kts
31-Mar-17 21:11 42.623059 10.551546 133 23679ft 434kts
31-Mar-17 21:12 42.544303 10.668363 134 21836ft 423kts
31-Mar-17 21:13 42.465411 10.783196 134 20005ft 412kts
31-Mar-17 21:14 42.388273 10.895111 133 18128ft 404kts
31-Mar-17 21:15 42.345841 11.034142 103 16146ft 402kts
31-Mar-17 21:16 42.319872 11.178377 105 14483ft 391kts
31-Mar-17 21:17 42.293639 11.318808 105 12825ft 381kts
31-Mar-17 21:18 42.267775 11.456004 105 11165ft 374kts
31-Mar-17 21:19 42.243699 11.582979 105 9390ft 291kts
31-Mar-17 21:20 42.224684 11.682408 106 9497ft 279kts
31-Mar-17 21:21 42.199911 11.781774 117 8986ft 284kts
31-Mar-17 21:22 42.162259 11.874327 122 7783ft 277kts
31-Mar-17 21:23 42.129284 11.949001 122 7116ft 270kts
31-Mar-17 21:24 42.085571 12.046886 123 5422ft 262kts
31-Mar-17 21:25 42.047621 12.131715 122 4428ft 243kts
31-Mar-17 21:26 42.008806 12.194948 166 3821ft 214kts
31-Mar-17 21:27 41.954905 12.215995 161 2485ft 187kts
31-Mar-17 21:28 41.909284 12.234993 160 1353ft 148kts
31-Mar-17 21:29 41.879110 12.247599 160 715ft 135kts
31-Mar-17 21:30 41.837519 12.265073 161 26ft 103kts
31-Mar-17 21:31 41.830624 12.266152 191 26ft 0kts
31-Mar-17 21:32 41.830424 12.266091 194 26ft 1kts
31-Mar-17 21:33 41.827653 12.265837 186 26ft 19kts
31-Mar-17 21:34 41.822925 12.266565 162 26ft 22kts
31-Mar-17 21:35 41.817312 12.268894 161 26ft 37kts
31-Mar-17 21:36 41.809631 12.272098 161 26ft 32kts
31-Mar-17 21:37 41.806015 12.270296 249 26ft 18kts
31-Mar-17 21:38 41.803940 12.262853 249 26ft 24kts
31-Mar-17 21:39 41.798785 12.257972 248 26ft 11kts
31-Mar-17 21:40 41.798144 12.254034 200 26ft 8kts
31-Mar-17 21:41 41.798157 12.253245 296 26ft 0kts
31-Mar-17 21:42 41.798157 12.253245 296 26ft 0kts
31-Mar-17 21:43 41.798157 12.253245 296 26ft 0kts
31-Mar-17 21:44 41.798157 12.253245 296 26ft 0kts
31-Mar-17 21:45 41.798157 12.253245 296 26ft 0kts

Navigation Log

Ident Type
Flight plan parsing failed, navigation log unavailable